sensor_id;sensor_type;location;lat;lon;timestamp;P1;durP1;ratioP1;P2;durP2;ratioP2
82475;SDS011;72099;43.176;76.872;2024-02-23T00:00:55;56.22;;;24.75;;
82475;SDS011;72099;43.176;76.872;2024-02-23T00:03:56;56.97;;;25.65;;
82475;SDS011;72099;43.176;76.872;2024-02-23T00:06:57;58.00;;;25.42;;
82475;SDS011;72099;43.176;76.872;2024-02-23T00:09:58;59.50;;;27.05;;
82475;SDS011;72099;43.176;76.872;2024-02-23T00:12:59;62.70;;;26.52;;
82475;SDS011;72099;43.176;76.872;2024-02-23T00:16:01;62.88;;;27.70;;
82475;SDS011;72099;43.176;76.872;2024-02-23T00:19:02;69.40;;;31.33;;
82475;SDS011;72099;43.176;76.872;2024-02-23T00:22:03;69.82;;;29.58;;
82475;SDS011;72099;43.176;76.872;2024-02-23T00:25:04;67.28;;;27.25;;
82475;SDS011;72099;43.176;76.872;2024-02-23T00:28:06;59.78;;;25.98;;
82475;SDS011;72099;43.176;76.872;2024-02-23T00:31:07;52.65;;;23.73;;
82475;SDS011;72099;43.176;76.872;2024-02-23T00:34:08;68.47;;;30.17;;
82475;SDS011;72099;43.176;76.872;2024-02-23T00:37:13;71.28;;;28.40;;
82475;SDS011;72099;43.176;76.872;2024-02-23T00:40:14;69.25;;;28.90;;
82475;SDS011;72099;43.176;76.872;2024-02-23T00:43:15;61.92;;;27.98;;
82475;SDS011;72099;43.176;76.872;2024-02-23T00:46:16;66.35;;;29.17;;
82475;SDS011;72099;43.176;76.872;2024-02-23T00:49:17;60.55;;;26.27;;
82475;SDS011;72099;43.176;76.872;2024-02-23T00:52:18;70.50;;;31.30;;
82475;SDS011;72099;43.176;76.872;2024-02-23T00:55:19;59.60;;;26.65;;
82475;SDS011;72099;43.176;76.872;2024-02-23T00:58:20;53.42;;;22.63;;
82475;SDS011;72099;43.176;76.872;2024-02-23T01:01:21;51.40;;;21.75;;
82475;SDS011;72099;43.176;76.872;2024-02-23T01:04:22;47.90;;;22.83;;
82475;SDS011;72099;43.176;76.872;2024-02-23T01:07:23;43.78;;;18.98;;
82475;SDS011;72099;43.176;76.872;2024-02-23T01:10:23;40.30;;;16.55;;
82475;SDS011;72099;43.176;76.872;2024-02-23T01:13:24;30.65;;;13.90;;
82475;SDS011;72099;43.176;76.872;2024-02-23T01:16:25;29.73;;;13.48;;
82475;SDS011;72099;43.176;76.872;2024-02-23T01:19:26;37.08;;;14.52;;
82475;SDS011;72099;43.176;76.872;2024-02-23T01:22:27;30.95;;;12.75;;
82475;SDS011;72099;43.176;76.872;2024-02-23T01:25:28;23.17;;;10.70;;
82475;SDS011;72099;43.176;76.872;2024-02-23T01:28:28;27.65;;;12.15;;
82475;SDS011;72099;43.176;76.872;2024-02-23T01:31:29;27.27;;;13.30;;
82475;SDS011;72099;43.176;76.872;2024-02-23T01:34:30;26.65;;;10.23;;
82475;SDS011;72099;43.176;76.872;2024-02-23T01:37:31;24.77;;;10.55;;
82475;SDS011;72099;43.176;76.872;2024-02-23T01:40:32;26.40;;;11.45;;
82475;SDS011;72099;43.176;76.872;2024-02-23T01:43:33;29.42;;;12.68;;
82475;SDS011;72099;43.176;76.872;2024-02-23T01:46:34;27.85;;;11.80;;
82475;SDS011;72099;43.176;76.872;2024-02-23T01:49:35;33.97;;;12.00;;
82475;SDS011;72099;43.176;76.872;2024-02-23T01:52:36;26.70;;;11.57;;
82475;SDS011;72099;43.176;76.872;2024-02-23T01:55:39;28.13;;;12.15;;
82475;SDS011;72099;43.176;76.872;2024-02-23T01:58:42;26.05;;;13.60;;
82475;SDS011;72099;43.176;76.872;2024-02-23T02:01:43;26.33;;;12.32;;
82475;SDS011;72099;43.176;76.872;2024-02-23T02:04:44;30.42;;;12.63;;
82475;SDS011;72099;43.176;76.872;2024-02-23T02:07:45;29.30;;;12.80;;
82475;SDS011;72099;43.176;76.872;2024-02-23T02:10:50;24.92;;;11.20;;
82475;SDS011;72099;43.176;76.872;2024-02-23T02:13:51;25.40;;;11.23;;
82475;SDS011;72099;43.176;76.872;2024-02-23T02:16:52;21.95;;;10.73;;
82475;SDS011;72099;43.176;76.872;2024-02-23T02:19:53;27.20;;;11.82;;
82475;SDS011;72099;43.176;76.872;2024-02-23T02:22:55;23.73;;;11.68;;
82475;SDS011;72099;43.176;76.872;2024-02-23T02:25:56;31.45;;;13.45;;
82475;SDS011;72099;43.176;76.872;2024-02-23T02:35:22;28.08;;;12.65;;
82475;SDS011;72099;43.176;76.872;2024-02-23T02:38:22;29.00;;;13.20;;
82475;SDS011;72099;43.176;76.872;2024-02-23T02:41:24;30.85;;;15.75;;
82475;SDS011;72099;43.176;76.872;2024-02-23T02:44:29;25.77;;;11.73;;
82475;SDS011;72099;43.176;76.872;2024-02-23T02:47:30;29.48;;;12.57;;
82475;SDS011;72099;43.176;76.872;2024-02-23T02:50:31;27.27;;;13.35;;
82475;SDS011;72099;43.176;76.872;2024-02-23T02:53:32;34.90;;;13.15;;
82475;SDS011;72099;43.176;76.872;2024-02-23T02:56:33;25.35;;;10.43;;
82475;SDS011;72099;43.176;76.872;2024-02-23T02:59:34;25.92;;;12.23;;
82475;SDS011;72099;43.176;76.872;2024-02-23T03:02:38;20.17;;;10.68;;
82475;SDS011;72099;43.176;76.872;2024-02-23T03:05:39;24.90;;;11.65;;
82475;SDS011;72099;43.176;76.872;2024-02-23T03:08:43;25.80;;;11.48;;
82475;SDS011;72099;43.176;76.872;2024-02-23T03:11:43;26.88;;;12.10;;
82475;SDS011;72099;43.176;76.872;2024-02-23T03:14:44;23.35;;;10.77;;
82475;SDS011;72099;43.176;76.872;2024-02-23T03:17:45;29.20;;;12.63;;
82475;SDS011;72099;43.176;76.872;2024-02-23T03:20:46;26.02;;;11.23;;
82475;SDS011;72099;43.176;76.872;2024-02-23T03:23:47;20.25;;;10.02;;
82475;SDS011;72099;43.176;76.872;2024-02-23T03:26:48;22.23;;;11.40;;
82475;SDS011;72099;43.176;76.872;2024-02-23T03:29:49;21.52;;;9.93;;
82475;SDS011;72099;43.176;76.872;2024-02-23T03:32:50;19.00;;;8.82;;
82475;SDS011;72099;43.176;76.872;2024-02-23T03:35:51;23.38;;;11.27;;
82475;SDS011;72099;43.176;76.872;2024-02-23T03:38:52;27.02;;;10.55;;
82475;SDS011;72099;43.176;76.872;2024-02-23T03:41:52;23.48;;;10.13;;
82475;SDS011;72099;43.176;76.872;2024-02-23T03:44:54;18.70;;;8.82;;
82475;SDS011;72099;43.176;76.872;2024-02-23T03:47:55;16.55;;;8.15;;
82475;SDS011;72099;43.176;76.872;2024-02-23T03:50:55;22.15;;;8.02;;
82475;SDS011;72099;43.176;76.872;2024-02-23T03:53:57;21.35;;;9.85;;
82475;SDS011;72099;43.176;76.872;2024-02-23T03:56:57;20.17;;;9.43;;
82475;SDS011;72099;43.176;76.872;2024-02-23T03:59:59;17.80;;;7.93;;
82475;SDS011;72099;43.176;76.872;2024-02-23T04:06:18;18.88;;;8.02;;
82475;SDS011;72099;43.176;76.872;2024-02-23T04:09:19;18.90;;;7.82;;
82475;SDS011;72099;43.176;76.872;2024-02-23T04:12:21;13.95;;;6.88;;
82475;SDS011;72099;43.176;76.872;2024-02-23T04:15:22;11.52;;;6.30;;
82475;SDS011;72099;43.176;76.872;2024-02-23T04:18:23;13.98;;;6.50;;
82475;SDS011;72099;43.176;76.872;2024-02-23T04:21:24;13.15;;;5.75;;
82475;SDS011;72099;43.176;76.872;2024-02-23T04:24:24;23.05;;;9.38;;
82475;SDS011;72099;43.176;76.872;2024-02-23T04:27:25;28.77;;;12.45;;
82475;SDS011;72099;43.176;76.872;2024-02-23T04:30:26;29.27;;;13.20;;
82475;SDS011;72099;43.176;76.872;2024-02-23T04:33:27;28.90;;;13.45;;
82475;SDS011;72099;43.176;76.872;2024-02-23T04:36:28;36.05;;;14.45;;
82475;SDS011;72099;43.176;76.872;2024-02-23T04:39:29;30.27;;;11.85;;
82475;SDS011;72099;43.176;76.872;2024-02-23T04:42:30;25.60;;;11.65;;
82475;SDS011;72099;43.176;76.872;2024-02-23T04:45:31;26.88;;;12.15;;
82475;SDS011;72099;43.176;76.872;2024-02-23T04:48:32;27.60;;;13.20;;
82475;SDS011;72099;43.176;76.872;2024-02-23T04:51:33;45.67;;;15.60;;
82475;SDS011;72099;43.176;76.872;2024-02-23T04:54:34;24.90;;;12.25;;
82475;SDS011;72099;43.176;76.872;2024-02-23T04:57:36;26.05;;;12.10;;
82475;SDS011;72099;43.176;76.872;2024-02-23T05:00:37;30.75;;;13.93;;
82475;SDS011;72099;43.176;76.872;2024-02-23T05:03:38;32.75;;;15.43;;
82475;SDS011;72099;43.176;76.872;2024-02-23T05:06:39;33.53;;;15.35;;
82475;SDS011;72099;43.176;76.872;2024-02-23T05:09:40;32.38;;;15.40;;
82475;SDS011;72099;43.176;76.872;2024-02-23T05:12:41;24.98;;;12.10;;
82475;SDS011;72099;43.176;76.872;2024-02-23T05:15:42;24.88;;;11.77;;
82475;SDS011;72099;43.176;76.872;2024-02-23T05:18:43;25.30;;;12.10;;
82475;SDS011;72099;43.176;76.872;2024-02-23T05:21:46;24.63;;;11.70;;
82475;SDS011;72099;43.176;76.872;2024-02-23T05:24:47;20.48;;;11.25;;
82475;SDS011;72099;43.176;76.872;2024-02-23T05:27:48;22.73;;;10.15;;
82475;SDS011;72099;43.176;76.872;2024-02-23T05:30:49;22.02;;;11.57;;
82475;SDS011;72099;43.176;76.872;2024-02-23T05:33:50;21.10;;;11.27;;
82475;SDS011;72099;43.176;76.872;2024-02-23T05:36:51;24.05;;;10.98;;
82475;SDS011;72099;43.176;76.872;2024-02-23T05:39:51;28.08;;;13.45;;
82475;SDS011;72099;43.176;76.872;2024-02-23T05:42:53;29.00;;;14.07;;
82475;SDS011;72099;43.176;76.872;2024-02-23T05:45:55;26.02;;;11.60;;
82475;SDS011;72099;43.176;76.872;2024-02-23T05:48:58;28.98;;;12.95;;
82475;SDS011;72099;43.176;76.872;2024-02-23T05:51:59;26.13;;;12.10;;
82475;SDS011;72099;43.176;76.872;2024-02-23T05:55:00;28.83;;;12.02;;
82475;SDS011;72099;43.176;76.872;2024-02-23T05:58:01;23.70;;;10.98;;
82475;SDS011;72099;43.176;76.872;2024-02-23T06:01:03;25.80;;;12.88;;
82475;SDS011;72099;43.176;76.872;2024-02-23T06:04:04;28.02;;;11.15;;
82475;SDS011;72099;43.176;76.872;2024-02-23T06:07:05;20.17;;;9.93;;
82475;SDS011;72099;43.176;76.872;2024-02-23T06:10:06;21.15;;;10.07;;
82475;SDS011;72099;43.176;76.872;2024-02-23T06:13:07;25.20;;;12.15;;
82475;SDS011;72099;43.176;76.872;2024-02-23T06:16:11;24.00;;;11.50;;
82475;SDS011;72099;43.176;76.872;2024-02-23T06:19:12;20.50;;;10.65;;
82475;SDS011;72099;43.176;76.872;2024-02-23T06:25:15;21.02;;;10.68;;
82475;SDS011;72099;43.176;76.872;2024-02-23T06:28:16;23.63;;;11.50;;
82475;SDS011;72099;43.176;76.872;2024-02-23T06:31:16;19.55;;;11.65;;
82475;SDS011;72099;43.176;76.872;2024-02-23T06:34:17;21.80;;;11.63;;
82475;SDS011;72099;43.176;76.872;2024-02-23T06:37:18;20.02;;;11.10;;
82475;SDS011;72099;43.176;76.872;2024-02-23T06:40:19;20.48;;;12.95;;
82475;SDS011;72099;43.176;76.872;2024-02-23T06:43:20;16.80;;;10.20;;
82475;SDS011;72099;43.176;76.872;2024-02-23T06:46:21;23.30;;;11.50;;
82475;SDS011;72099;43.176;76.872;2024-02-23T06:49:21;18.13;;;11.00;;
82475;SDS011;72099;43.176;76.872;2024-02-23T06:55:50;18.88;;;10.57;;
82475;SDS011;72099;43.176;76.872;2024-02-23T06:58:51;19.38;;;10.52;;
82475;SDS011;72099;43.176;76.872;2024-02-23T07:01:52;17.35;;;12.00;;
82475;SDS011;72099;43.176;76.872;2024-02-23T07:04:52;17.45;;;10.32;;
82475;SDS011;72099;43.176;76.872;2024-02-23T07:07:54;20.92;;;13.10;;
82475;SDS011;72099;43.176;76.872;2024-02-23T07:10:55;29.35;;;14.20;;
82475;SDS011;72099;43.176;76.872;2024-02-23T07:13:57;27.15;;;14.20;;
82475;SDS011;72099;43.176;76.872;2024-02-23T07:16:57;27.67;;;14.75;;
82475;SDS011;72099;43.176;76.872;2024-02-23T07:19:58;27.80;;;15.20;;
82475;SDS011;72099;43.176;76.872;2024-02-23T07:23:05;28.15;;;15.27;;
82475;SDS011;72099;43.176;76.872;2024-02-23T07:26:06;28.10;;;14.50;;
82475;SDS011;72099;43.176;76.872;2024-02-23T07:29:07;28.92;;;15.32;;
82475;SDS011;72099;43.176;76.872;2024-02-23T07:32:08;28.80;;;16.50;;
82475;SDS011;72099;43.176;76.872;2024-02-23T07:35:09;28.85;;;15.73;;
82475;SDS011;72099;43.176;76.872;2024-02-23T07:38:10;29.48;;;15.27;;
82475;SDS011;72099;43.176;76.872;2024-02-23T07:41:11;33.58;;;16.63;;
82475;SDS011;72099;43.176;76.872;2024-02-23T07:44:15;29.85;;;16.52;;
82475;SDS011;72099;43.176;76.872;2024-02-23T07:47:16;30.70;;;17.75;;
82475;SDS011;72099;43.176;76.872;2024-02-23T07:50:17;26.50;;;14.65;;
82475;SDS011;72099;43.176;76.872;2024-02-23T07:53:19;31.15;;;16.58;;
82475;SDS011;72099;43.176;76.872;2024-02-23T07:56:20;33.42;;;16.70;;
82475;SDS011;72099;43.176;76.872;2024-02-23T07:59:21;29.42;;;16.08;;
82475;SDS011;72099;43.176;76.872;2024-02-23T08:05:52;20.00;;;11.38;;
82475;SDS011;72099;43.176;76.872;2024-02-23T08:08:52;22.45;;;12.13;;
82475;SDS011;72099;43.176;76.872;2024-02-23T08:11:55;21.98;;;12.77;;
82475;SDS011;72099;43.176;76.872;2024-02-23T08:14:59;20.75;;;12.18;;
82475;SDS011;72099;43.176;76.872;2024-02-23T08:18:01;18.48;;;10.43;;
82475;SDS011;72099;43.176;76.872;2024-02-23T08:21:02;21.17;;;10.82;;
82475;SDS011;72099;43.176;76.872;2024-02-23T08:24:04;16.33;;;9.88;;
82475;SDS011;72099;43.176;76.872;2024-02-23T08:27:05;17.98;;;10.02;;
82475;SDS011;72099;43.176;76.872;2024-02-23T08:30:06;15.88;;;7.80;;
82475;SDS011;72099;43.176;76.872;2024-02-23T08:33:07;15.73;;;8.32;;
82475;SDS011;72099;43.176;76.872;2024-02-23T08:36:10;15.90;;;9.23;;
82475;SDS011;72099;43.176;76.872;2024-02-23T08:39:10;13.88;;;7.20;;
82475;SDS011;72099;43.176;76.872;2024-02-23T08:42:11;13.77;;;7.07;;
82475;SDS011;72099;43.176;76.872;2024-02-23T08:45:12;13.20;;;7.43;;
82475;SDS011;72099;43.176;76.872;2024-02-23T08:48:13;14.45;;;9.43;;
82475;SDS011;72099;43.176;76.872;2024-02-23T08:51:15;16.35;;;8.30;;
82475;SDS011;72099;43.176;76.872;2024-02-23T08:54:16;10.85;;;6.30;;
82475;SDS011;72099;43.176;76.872;2024-02-23T08:57:17;10.90;;;6.03;;
82475;SDS011;72099;43.176;76.872;2024-02-23T09:00:20;11.50;;;6.57;;
82475;SDS011;72099;43.176;76.872;2024-02-23T09:03:21;8.85;;;5.07;;
82475;SDS011;72099;43.176;76.872;2024-02-23T09:06:21;9.40;;;5.28;;
82475;SDS011;72099;43.176;76.872;2024-02-23T09:09:22;9.55;;;4.70;;
82475;SDS011;72099;43.176;76.872;2024-02-23T09:15:53;8.20;;;4.57;;
82475;SDS011;72099;43.176;76.872;2024-02-23T09:18:54;8.00;;;5.10;;
82475;SDS011;72099;43.176;76.872;2024-02-23T09:21:54;10.05;;;5.43;;
82475;SDS011;72099;43.176;76.872;2024-02-23T09:24:55;9.48;;;4.55;;
82475;SDS011;72099;43.176;76.872;2024-02-23T09:27:57;9.60;;;4.60;;
82475;SDS011;72099;43.176;76.872;2024-02-23T09:30:58;7.68;;;4.10;;
82475;SDS011;72099;43.176;76.872;2024-02-23T09:36:59;6.75;;;3.80;;
82475;SDS011;72099;43.176;76.872;2024-02-23T09:40:01;8.77;;;4.03;;
82475;SDS011;72099;43.176;76.872;2024-02-23T09:43:01;8.63;;;4.15;;
82475;SDS011;72099;43.176;76.872;2024-02-23T09:46:06;7.45;;;3.95;;
82475;SDS011;72099;43.176;76.872;2024-02-23T09:49:07;9.57;;;4.53;;
82475;SDS011;72099;43.176;76.872;2024-02-23T09:52:11;14.07;;;5.60;;
82475;SDS011;72099;43.176;76.872;2024-02-23T09:55:13;9.35;;;5.07;;
82475;SDS011;72099;43.176;76.872;2024-02-23T09:58:14;13.18;;;5.32;;
82475;SDS011;72099;43.176;76.872;2024-02-23T10:01:19;11.48;;;5.25;;
82475;SDS011;72099;43.176;76.872;2024-02-23T10:04:27;11.18;;;5.30;;
82475;SDS011;72099;43.176;76.872;2024-02-23T10:07:31;14.25;;;6.15;;
82475;SDS011;72099;43.176;76.872;2024-02-23T10:10:32;17.92;;;9.82;;
82475;SDS011;72099;43.176;76.872;2024-02-23T10:13:34;37.33;;;17.92;;
82475;SDS011;72099;43.176;76.872;2024-02-23T10:16:35;35.92;;;18.27;;
82475;SDS011;72099;43.176;76.872;2024-02-23T10:19:36;44.53;;;20.80;;
82475;SDS011;72099;43.176;76.872;2024-02-23T10:25:38;39.30;;;18.42;;
82475;SDS011;72099;43.176;76.872;2024-02-23T10:31:40;29.17;;;13.43;;
82475;SDS011;72099;43.176;76.872;2024-02-23T10:34:42;25.55;;;13.52;;
82475;SDS011;72099;43.176;76.872;2024-02-23T10:40:47;36.85;;;16.35;;
82475;SDS011;72099;43.176;76.872;2024-02-23T10:43:50;42.92;;;20.10;;
82475;SDS011;72099;43.176;76.872;2024-02-23T10:46:53;46.60;;;22.08;;
82475;SDS011;72099;43.176;76.872;2024-02-23T10:49:55;58.22;;;25.05;;
82475;SDS011;72099;43.176;76.872;2024-02-23T10:53:00;58.28;;;26.95;;
82475;SDS011;72099;43.176;76.872;2024-02-23T10:56:02;53.25;;;23.00;;
82475;SDS011;72099;43.176;76.872;2024-02-23T10:59:05;48.17;;;25.13;;
82475;SDS011;72099;43.176;76.872;2024-02-23T11:02:10;52.13;;;25.10;;
82475;SDS011;72099;43.176;76.872;2024-02-23T11:05:12;55.13;;;24.75;;
82475;SDS011;72099;43.176;76.872;2024-02-23T11:08:18;57.25;;;26.60;;
82475;SDS011;72099;43.176;76.872;2024-02-23T11:11:20;61.38;;;27.67;;
82475;SDS011;72099;43.176;76.872;2024-02-23T11:14:37;59.58;;;28.27;;
82475;SDS011;72099;43.176;76.872;2024-02-23T11:17:39;64.95;;;26.17;;
82475;SDS011;72099;43.176;76.872;2024-02-23T11:20:40;58.97;;;26.00;;
82475;SDS011;72099;43.176;76.872;2024-02-23T11:23:45;63.85;;;28.95;;
82475;SDS011;72099;43.176;76.872;2024-02-23T11:26:55;53.63;;;24.55;;
82475;SDS011;72099;43.176;76.872;2024-02-23T11:30:04;86.95;;;38.58;;
82475;SDS011;72099;43.176;76.872;2024-02-23T11:33:07;64.95;;;28.70;;
82475;SDS011;72099;43.176;76.872;2024-02-23T11:36:09;66.35;;;29.23;;
82475;SDS011;72099;43.176;76.872;2024-02-23T11:39:10;58.70;;;28.08;;
82475;SDS011;72099;43.176;76.872;2024-02-23T11:42:13;63.83;;;28.50;;
82475;SDS011;72099;43.176;76.872;2024-02-23T11:45:14;61.70;;;27.60;;
82475;SDS011;72099;43.176;76.872;2024-02-23T11:48:15;57.05;;;25.08;;
82475;SDS011;72099;43.176;76.872;2024-02-23T11:51:16;60.90;;;25.95;;
82475;SDS011;72099;43.176;76.872;2024-02-23T11:54:17;59.35;;;26.70;;
82475;SDS011;72099;43.176;76.872;2024-02-23T11:57:18;60.60;;;26.80;;
82475;SDS011;72099;43.176;76.872;2024-02-23T12:00:19;62.60;;;28.05;;
82475;SDS011;72099;43.176;76.872;2024-02-23T12:03:20;61.67;;;27.30;;
82475;SDS011;72099;43.176;76.872;2024-02-23T12:06:21;56.60;;;26.50;;
82475;SDS011;72099;43.176;76.872;2024-02-23T12:09:22;60.72;;;26.38;;
82475;SDS011;72099;43.176;76.872;2024-02-23T12:12:24;65.35;;;27.33;;
82475;SDS011;72099;43.176;76.872;2024-02-23T12:15:26;59.92;;;26.10;;
82475;SDS011;72099;43.176;76.872;2024-02-23T12:18:28;68.60;;;31.10;;
82475;SDS011;72099;43.176;76.872;2024-02-23T12:25:02;64.40;;;27.98;;
82475;SDS011;72099;43.176;76.872;2024-02-23T12:28:04;58.60;;;27.30;;
82475;SDS011;72099;43.176;76.872;2024-02-23T12:31:05;74.13;;;30.13;;
82475;SDS011;72099;43.176;76.872;2024-02-23T12:34:07;62.65;;;29.75;;
82475;SDS011;72099;43.176;76.872;2024-02-23T12:37:16;60.67;;;27.50;;
82475;SDS011;72099;43.176;76.872;2024-02-23T12:40:17;56.78;;;26.65;;
82475;SDS011;72099;43.176;76.872;2024-02-23T12:43:18;51.05;;;22.33;;
82475;SDS011;72099;43.176;76.872;2024-02-23T12:46:21;57.38;;;24.58;;
82475;SDS011;72099;43.176;76.872;2024-02-23T12:49:23;44.38;;;21.00;;
82475;SDS011;72099;43.176;76.872;2024-02-23T12:52:24;50.53;;;22.70;;
82475;SDS011;72099;43.176;76.872;2024-02-23T12:55:25;47.17;;;19.40;;
82475;SDS011;72099;43.176;76.872;2024-02-23T12:58:26;46.35;;;20.00;;
82475;SDS011;72099;43.176;76.872;2024-02-23T13:01:27;41.50;;;19.00;;
82475;SDS011;72099;43.176;76.872;2024-02-23T13:04:28;54.55;;;22.35;;
82475;SDS011;72099;43.176;76.872;2024-02-23T13:07:29;42.67;;;18.30;;
82475;SDS011;72099;43.176;76.872;2024-02-23T13:10:30;51.95;;;21.80;;
82475;SDS011;72099;43.176;76.872;2024-02-23T13:13:31;49.88;;;20.02;;
82475;SDS011;72099;43.176;76.872;2024-02-23T13:16:33;50.53;;;21.48;;
82475;SDS011;72099;43.176;76.872;2024-02-23T13:19:34;37.65;;;15.55;;
82475;SDS011;72099;43.176;76.872;2024-02-23T13:25:55;41.10;;;14.85;;
82475;SDS011;72099;43.176;76.872;2024-02-23T13:28:56;29.13;;;11.45;;
82475;SDS011;72099;43.176;76.872;2024-02-23T13:31:57;28.00;;;12.68;;
82475;SDS011;72099;43.176;76.872;2024-02-23T13:37:59;31.23;;;14.32;;
82475;SDS011;72099;43.176;76.872;2024-02-23T13:41:06;30.23;;;12.25;;
82475;SDS011;72099;43.176;76.872;2024-02-23T13:44:07;24.02;;;10.40;;
82475;SDS011;72099;43.176;76.872;2024-02-23T13:47:08;35.38;;;13.70;;
82475;SDS011;72099;43.176;76.872;2024-02-23T13:50:11;32.67;;;15.35;;
82475;SDS011;72099;43.176;76.872;2024-02-23T13:53:14;31.85;;;14.23;;
82475;SDS011;72099;43.176;76.872;2024-02-23T13:56:16;37.22;;;15.85;;
82475;SDS011;72099;43.176;76.872;2024-02-23T13:59:17;36.88;;;16.30;;
82475;SDS011;72099;43.176;76.872;2024-02-23T14:02:25;50.47;;;20.55;;
82475;SDS011;72099;43.176;76.872;2024-02-23T14:05:27;34.42;;;15.45;;
82475;SDS011;72099;43.176;76.872;2024-02-23T14:08:28;30.48;;;13.63;;
82475;SDS011;72099;43.176;76.872;2024-02-23T14:11:29;38.00;;;15.63;;
82475;SDS011;72099;43.176;76.872;2024-02-23T14:17:32;37.47;;;15.90;;
82475;SDS011;72099;43.176;76.872;2024-02-23T14:20:34;39.30;;;17.20;;
82475;SDS011;72099;43.176;76.872;2024-02-23T14:23:36;40.15;;;17.10;;
82475;SDS011;72099;43.176;76.872;2024-02-23T14:26:37;44.13;;;16.85;;
82475;SDS011;72099;43.176;76.872;2024-02-23T14:29:38;36.80;;;16.33;;
82475;SDS011;72099;43.176;76.872;2024-02-23T14:36:07;36.58;;;17.85;;
82475;SDS011;72099;43.176;76.872;2024-02-23T14:39:08;42.03;;;18.27;;
82475;SDS011;72099;43.176;76.872;2024-02-23T14:42:10;37.97;;;16.63;;
82475;SDS011;72099;43.176;76.872;2024-02-23T14:45:12;40.85;;;16.95;;
82475;SDS011;72099;43.176;76.872;2024-02-23T14:48:16;37.28;;;17.58;;
82475;SDS011;72099;43.176;76.872;2024-02-23T14:51:17;37.53;;;16.67;;
82475;SDS011;72099;43.176;76.872;2024-02-23T14:54:19;44.13;;;19.05;;
82475;SDS011;72099;43.176;76.872;2024-02-23T14:57:20;39.13;;;17.75;;
82475;SDS011;72099;43.176;76.872;2024-02-23T15:00:22;39.63;;;17.77;;
82475;SDS011;72099;43.176;76.872;2024-02-23T15:03:23;39.30;;;17.38;;
82475;SDS011;72099;43.176;76.872;2024-02-23T15:09:28;41.15;;;19.05;;
82475;SDS011;72099;43.176;76.872;2024-02-23T15:12:28;43.83;;;19.42;;
82475;SDS011;72099;43.176;76.872;2024-02-23T15:15:31;42.03;;;20.25;;
82475;SDS011;72099;43.176;76.872;2024-02-23T15:18:32;49.08;;;20.27;;
82475;SDS011;72099;43.176;76.872;2024-02-23T15:21:33;41.13;;;19.13;;
82475;SDS011;72099;43.176;76.872;2024-02-23T15:24:39;46.60;;;19.90;;
82475;SDS011;72099;43.176;76.872;2024-02-23T15:27:46;47.55;;;20.90;;
82475;SDS011;72099;43.176;76.872;2024-02-23T15:30:49;49.58;;;21.13;;
82475;SDS011;72099;43.176;76.872;2024-02-23T15:33:52;47.08;;;21.05;;
82475;SDS011;72099;43.176;76.872;2024-02-23T15:36:53;49.85;;;20.77;;
82475;SDS011;72099;43.176;76.872;2024-02-23T15:39:54;50.63;;;19.98;;
82475;SDS011;72099;43.176;76.872;2024-02-23T15:42:55;46.15;;;21.15;;
82475;SDS011;72099;43.176;76.872;2024-02-23T15:45:58;53.83;;;24.17;;
82475;SDS011;72099;43.176;76.872;2024-02-23T15:48:59;54.00;;;21.70;;
82475;SDS011;72099;43.176;76.872;2024-02-23T15:52:00;46.78;;;22.20;;
82475;SDS011;72099;43.176;76.872;2024-02-23T15:55:01;49.78;;;21.70;;
82475;SDS011;72099;43.176;76.872;2024-02-23T15:58:03;63.47;;;24.25;;
82475;SDS011;72099;43.176;76.872;2024-02-23T16:01:04;58.42;;;26.08;;
82475;SDS011;72099;43.176;76.872;2024-02-23T16:04:05;58.53;;;22.50;;
82475;SDS011;72099;43.176;76.872;2024-02-23T16:07:10;49.00;;;21.33;;
82475;SDS011;72099;43.176;76.872;2024-02-23T16:10:11;46.35;;;20.95;;
82475;SDS011;72099;43.176;76.872;2024-02-23T16:13:13;47.92;;;21.70;;
82475;SDS011;72099;43.176;76.872;2024-02-23T16:16:15;45.17;;;18.95;;
82475;SDS011;72099;43.176;76.872;2024-02-23T16:19:16;35.08;;;15.85;;
82475;SDS011;72099;43.176;76.872;2024-02-23T16:22:18;34.15;;;15.27;;
82475;SDS011;72099;43.176;76.872;2024-02-23T16:25:19;34.15;;;14.15;;
82475;SDS011;72099;43.176;76.872;2024-02-23T16:28:20;26.48;;;13.10;;
82475;SDS011;72099;43.176;76.872;2024-02-23T16:31:21;23.27;;;11.20;;
82475;SDS011;72099;43.176;76.872;2024-02-23T16:34:22;27.02;;;12.52;;
82475;SDS011;72099;43.176;76.872;2024-02-23T16:37:23;20.40;;;11.57;;
82475;SDS011;72099;43.176;76.872;2024-02-23T16:40:24;22.88;;;10.98;;
82475;SDS011;72099;43.176;76.872;2024-02-23T16:43:29;19.45;;;9.98;;
82475;SDS011;72099;43.176;76.872;2024-02-23T16:46:30;25.35;;;11.48;;
82475;SDS011;72099;43.176;76.872;2024-02-23T16:52:34;26.88;;;11.75;;
82475;SDS011;72099;43.176;76.872;2024-02-23T16:55:35;21.67;;;11.10;;
82475;SDS011;72099;43.176;76.872;2024-02-23T16:58:37;26.55;;;12.10;;
82475;SDS011;72099;43.176;76.872;2024-02-23T17:01:38;20.50;;;10.10;;
82475;SDS011;72099;43.176;76.872;2024-02-23T17:04:39;23.65;;;10.52;;
82475;SDS011;72099;43.176;76.872;2024-02-23T17:07:41;26.63;;;11.50;;
82475;SDS011;72099;43.176;76.872;2024-02-23T17:10:42;19.83;;;10.00;;
82475;SDS011;72099;43.176;76.872;2024-02-23T17:13:43;23.33;;;11.88;;
82475;SDS011;72099;43.176;76.872;2024-02-23T17:16:44;22.58;;;11.20;;
82475;SDS011;72099;43.176;76.872;2024-02-23T17:19:45;22.20;;;11.70;;
82475;SDS011;72099;43.176;76.872;2024-02-23T17:26:12;24.23;;;12.05;;
82475;SDS011;72099;43.176;76.872;2024-02-23T17:29:14;18.48;;;9.73;;
82475;SDS011;72099;43.176;76.872;2024-02-23T17:32:17;24.65;;;12.63;;
82475;SDS011;72099;43.176;76.872;2024-02-23T17:35:18;26.90;;;13.27;;
82475;SDS011;72099;43.176;76.872;2024-02-23T17:38:19;20.85;;;11.70;;
82475;SDS011;72099;43.176;76.872;2024-02-23T17:41:19;23.42;;;11.15;;
82475;SDS011;72099;43.176;76.872;2024-02-23T17:44:21;17.67;;;9.68;;
82475;SDS011;72099;43.176;76.872;2024-02-23T17:47:23;19.63;;;10.35;;
82475;SDS011;72099;43.176;76.872;2024-02-23T17:50:24;19.20;;;10.65;;
82475;SDS011;72099;43.176;76.872;2024-02-23T17:53:27;20.92;;;9.88;;
82475;SDS011;72099;43.176;76.872;2024-02-23T17:56:28;21.70;;;10.55;;
82475;SDS011;72099;43.176;76.872;2024-02-23T17:59:29;23.92;;;10.65;;
82475;SDS011;72099;43.176;76.872;2024-02-23T18:02:30;23.30;;;10.10;;
82475;SDS011;72099;43.176;76.872;2024-02-23T18:05:31;20.48;;;10.65;;
82475;SDS011;72099;43.176;76.872;2024-02-23T18:08:32;21.30;;;11.90;;
82475;SDS011;72099;43.176;76.872;2024-02-23T18:11:36;20.67;;;10.25;;
82475;SDS011;72099;43.176;76.872;2024-02-23T18:14:38;21.85;;;9.85;;
82475;SDS011;72099;43.176;76.872;2024-02-23T18:17:39;24.30;;;9.40;;
82475;SDS011;72099;43.176;76.872;2024-02-23T18:20:40;22.60;;;11.07;;
82475;SDS011;72099;43.176;76.872;2024-02-23T18:23:40;26.90;;;11.50;;
82475;SDS011;72099;43.176;76.872;2024-02-23T18:26:41;24.00;;;12.15;;
82475;SDS011;72099;43.176;76.872;2024-02-23T18:29:43;26.70;;;11.23;;